sensor_id;sensor_type;location;lat;lon;timestamp;P1;durP1;ratioP1;P2;durP2;ratioP2
26906;SDS011;14472;56.880;16.658;2022-10-16T00:00:43;10.77;;;9.63;;
26906;SDS011;14472;56.880;16.658;2022-10-16T00:03:09;11.32;;;9.27;;
26906;SDS011;14472;56.880;16.658;2022-10-16T00:05:42;11.63;;;9.03;;
26906;SDS011;14472;56.880;16.658;2022-10-16T00:08:08;10.37;;;9.37;;
26906;SDS011;14472;56.880;16.658;2022-10-16T00:10:36;9.93;;;8.93;;
26906;SDS011;14472;56.880;16.658;2022-10-16T00:13:02;10.73;;;9.63;;
26906;SDS011;14472;56.880;16.658;2022-10-16T00:15:30;10.13;;;8.97;;
26906;SDS011;14472;56.880;16.658;2022-10-16T00:17:57;9.93;;;8.93;;
26906;SDS011;14472;56.880;16.658;2022-10-16T00:20:23;13.67;;;9.43;;
26906;SDS011;14472;56.880;16.658;2022-10-16T00:22:49;10.77;;;9.67;;
26906;SDS011;14472;56.880;16.658;2022-10-16T00:25:14;11.40;;;9.90;;
26906;SDS011;14472;56.880;16.658;2022-10-16T00:27:40;10.77;;;9.47;;
26906;SDS011;14472;56.880;16.658;2022-10-16T00:30:06;10.50;;;9.40;;
26906;SDS011;14472;56.880;16.658;2022-10-16T00:32:33;11.20;;;9.40;;
26906;SDS011;14472;56.880;16.658;2022-10-16T00:34:59;12.63;;;10.60;;
26906;SDS011;14472;56.880;16.658;2022-10-16T00:37:24;12.30;;;10.15;;
26906;SDS011;14472;56.880;16.658;2022-10-16T00:39:50;13.85;;;10.45;;
26906;SDS011;14472;56.880;16.658;2022-10-16T00:42:16;12.00;;;9.97;;
26906;SDS011;14472;56.880;16.658;2022-10-16T00:47:28;11.27;;;9.90;;
26906;SDS011;14472;56.880;16.658;2022-10-16T00:50:11;11.80;;;10.20;;
26906;SDS011;14472;56.880;16.658;2022-10-16T00:52:44;11.20;;;9.97;;
26906;SDS011;14472;56.880;16.658;2022-10-16T00:55:13;12.23;;;10.57;;
26906;SDS011;14472;56.880;16.658;2022-10-16T00:57:39;12.50;;;10.65;;
26906;SDS011;14472;56.880;16.658;2022-10-16T01:00:06;13.85;;;11.32;;
26906;SDS011;14472;56.880;16.658;2022-10-16T01:02:33;12.20;;;10.90;;
26906;SDS011;14472;56.880;16.658;2022-10-16T01:04:59;12.00;;;10.70;;
26906;SDS011;14472;56.880;16.658;2022-10-16T01:10:14;13.48;;;11.68;;
26906;SDS011;14472;56.880;16.658;2022-10-16T01:12:50;13.97;;;11.90;;
26906;SDS011;14472;56.880;16.658;2022-10-16T01:20:28;15.50;;;12.70;;
26906;SDS011;14472;56.880;16.658;2022-10-16T01:25:41;15.07;;;12.73;;
26906;SDS011;14472;56.880;16.658;2022-10-16T01:28:12;14.73;;;12.43;;
26906;SDS011;14472;56.880;16.658;2022-10-16T01:30:39;16.33;;;13.10;;
26906;SDS011;14472;56.880;16.658;2022-10-16T01:33:13;14.30;;;12.53;;
26906;SDS011;14472;56.880;16.658;2022-10-16T01:35:52;15.70;;;12.00;;
26906;SDS011;14472;56.880;16.658;2022-10-16T01:38:23;15.70;;;13.13;;
26906;SDS011;14472;56.880;16.658;2022-10-16T01:41:01;14.83;;;12.43;;
26906;SDS011;14472;56.880;16.658;2022-10-16T01:43:41;14.60;;;12.87;;
26906;SDS011;14472;56.880;16.658;2022-10-16T01:46:11;15.53;;;12.93;;
26906;SDS011;14472;56.880;16.658;2022-10-16T01:48:40;14.67;;;12.97;;
26906;SDS011;14472;56.880;16.658;2022-10-16T01:51:07;14.17;;;12.50;;
26906;SDS011;14472;56.880;16.658;2022-10-16T01:53:36;14.03;;;12.63;;
26906;SDS011;14472;56.880;16.658;2022-10-16T01:56:03;14.40;;;12.43;;
26906;SDS011;14472;56.880;16.658;2022-10-16T01:58:34;14.40;;;12.93;;
26906;SDS011;14472;56.880;16.658;2022-10-16T02:01:05;15.37;;;13.47;;
26906;SDS011;14472;56.880;16.658;2022-10-16T02:03:34;14.95;;;13.27;;
26906;SDS011;14472;56.880;16.658;2022-10-16T02:06:02;14.10;;;12.43;;
26906;SDS011;14472;56.880;16.658;2022-10-16T02:08:28;14.27;;;12.43;;
26906;SDS011;14472;56.880;16.658;2022-10-16T02:10:56;14.67;;;12.70;;
26906;SDS011;14472;56.880;16.658;2022-10-16T02:13:27;14.68;;;12.88;;
26906;SDS011;14472;56.880;16.658;2022-10-16T02:15:58;14.68;;;13.05;;
26906;SDS011;14472;56.880;16.658;2022-10-16T02:18:24;14.02;;;12.63;;
26906;SDS011;14472;56.880;16.658;2022-10-16T02:23:27;14.33;;;12.37;;
26906;SDS011;14472;56.880;16.658;2022-10-16T02:26:01;14.00;;;12.52;;
26906;SDS011;14472;56.880;16.658;2022-10-16T02:28:33;14.10;;;12.70;;
26906;SDS011;14472;56.880;16.658;2022-10-16T02:31:11;13.73;;;12.33;;
26906;SDS011;14472;56.880;16.658;2022-10-16T02:33:40;14.55;;;13.00;;
26906;SDS011;14472;56.880;16.658;2022-10-16T02:36:08;12.75;;;11.45;;
26906;SDS011;14472;56.880;16.658;2022-10-16T02:38:34;12.70;;;11.43;;
26906;SDS011;14472;56.880;16.658;2022-10-16T02:41:01;13.77;;;12.48;;
26906;SDS011;14472;56.880;16.658;2022-10-16T02:43:28;14.97;;;12.10;;
26906;SDS011;14472;56.880;16.658;2022-10-16T02:45:54;14.35;;;12.10;;
26906;SDS011;14472;56.880;16.658;2022-10-16T02:48:20;12.35;;;11.15;;
26906;SDS011;14472;56.880;16.658;2022-10-16T02:50:46;12.60;;;11.45;;
26906;SDS011;14472;56.880;16.658;2022-10-16T02:53:12;12.55;;;11.35;;
26906;SDS011;14472;56.880;16.658;2022-10-16T02:55:37;13.13;;;11.83;;
26906;SDS011;14472;56.880;16.658;2022-10-16T02:58:03;12.52;;;11.32;;
26906;SDS011;14472;56.880;16.658;2022-10-16T03:00:29;12.32;;;11.15;;
26906;SDS011;14472;56.880;16.658;2022-10-16T03:02:54;12.13;;;11.02;;
26906;SDS011;14472;56.880;16.658;2022-10-16T03:05:20;12.07;;;10.88;;
26906;SDS011;14472;56.880;16.658;2022-10-16T03:07:46;12.00;;;10.80;;
26906;SDS011;14472;56.880;16.658;2022-10-16T03:10:11;12.38;;;11.18;;
26906;SDS011;14472;56.880;16.658;2022-10-16T03:12:37;12.32;;;11.13;;
26906;SDS011;14472;56.880;16.658;2022-10-16T03:15:03;11.43;;;10.43;;
26906;SDS011;14472;56.880;16.658;2022-10-16T03:17:29;10.82;;;9.93;;
26906;SDS011;14472;56.880;16.658;2022-10-16T03:19:56;11.32;;;10.18;;
26906;SDS011;14472;56.880;16.658;2022-10-16T03:22:22;11.18;;;10.18;;
26906;SDS011;14472;56.880;16.658;2022-10-16T03:24:47;10.77;;;9.68;;
26906;SDS011;14472;56.880;16.658;2022-10-16T03:27:13;10.65;;;9.65;;
26906;SDS011;14472;56.880;16.658;2022-10-16T03:29:39;9.90;;;9.02;;
26906;SDS011;14472;56.880;16.658;2022-10-16T03:32:05;9.75;;;8.85;;
26906;SDS011;14472;56.880;16.658;2022-10-16T03:34:30;8.52;;;7.70;;
26906;SDS011;14472;56.880;16.658;2022-10-16T03:36:56;8.52;;;7.65;;
26906;SDS011;14472;56.880;16.658;2022-10-16T03:39:22;8.48;;;7.68;;
26906;SDS011;14472;56.880;16.658;2022-10-16T03:41:48;8.20;;;7.43;;
26906;SDS011;14472;56.880;16.658;2022-10-16T03:44:13;8.35;;;7.55;;
26906;SDS011;14472;56.880;16.658;2022-10-16T03:46:39;8.80;;;7.90;;
26906;SDS011;14472;56.880;16.658;2022-10-16T03:49:05;7.63;;;6.93;;
26906;SDS011;14472;56.880;16.658;2022-10-16T03:51:31;9.27;;;7.47;;
26906;SDS011;14472;56.880;16.658;2022-10-16T03:53:56;7.63;;;6.90;;
26906;SDS011;14472;56.880;16.658;2022-10-16T03:56:22;7.55;;;6.85;;
26906;SDS011;14472;56.880;16.658;2022-10-16T03:58:48;8.00;;;7.20;;
26906;SDS011;14472;56.880;16.658;2022-10-16T04:01:13;7.25;;;6.65;;
26906;SDS011;14472;56.880;16.658;2022-10-16T04:03:39;7.57;;;6.88;;
26906;SDS011;14472;56.880;16.658;2022-10-16T04:06:05;7.45;;;6.78;;
26906;SDS011;14472;56.880;16.658;2022-10-16T04:08:30;7.80;;;7.00;;
26906;SDS011;14472;56.880;16.658;2022-10-16T04:10:59;6.68;;;6.18;;
26906;SDS011;14472;56.880;16.658;2022-10-16T04:13:26;8.00;;;7.20;;
26906;SDS011;14472;56.880;16.658;2022-10-16T04:15:51;6.95;;;6.35;;
26906;SDS011;14472;56.880;16.658;2022-10-16T04:18:17;8.18;;;7.38;;
26906;SDS011;14472;56.880;16.658;2022-10-16T04:20:43;7.28;;;6.60;;
26906;SDS011;14472;56.880;16.658;2022-10-16T04:23:08;6.88;;;6.28;;
26906;SDS011;14472;56.880;16.658;2022-10-16T04:25:34;6.85;;;6.22;;
26906;SDS011;14472;56.880;16.658;2022-10-16T04:28:00;7.13;;;6.43;;
26906;SDS011;14472;56.880;16.658;2022-10-16T04:30:26;6.90;;;6.30;;
26906;SDS011;14472;56.880;16.658;2022-10-16T04:32:51;6.85;;;6.25;;
26906;SDS011;14472;56.880;16.658;2022-10-16T04:35:18;7.03;;;6.28;;
26906;SDS011;14472;56.880;16.658;2022-10-16T04:37:45;6.75;;;6.22;;
26906;SDS011;14472;56.880;16.658;2022-10-16T04:40:11;6.10;;;5.60;;
26906;SDS011;14472;56.880;16.658;2022-10-16T04:42:37;6.22;;;5.68;;
26906;SDS011;14472;56.880;16.658;2022-10-16T04:45:04;5.82;;;5.32;;
26906;SDS011;14472;56.880;16.658;2022-10-16T04:47:30;6.25;;;5.70;;
26906;SDS011;14472;56.880;16.658;2022-10-16T04:49:56;5.90;;;5.40;;
26906;SDS011;14472;56.880;16.658;2022-10-16T04:52:22;6.47;;;5.85;;
26906;SDS011;14472;56.880;16.658;2022-10-16T04:54:49;6.75;;;6.07;;
26906;SDS011;14472;56.880;16.658;2022-10-16T04:57:16;5.88;;;5.28;;
26906;SDS011;14472;56.880;16.658;2022-10-16T04:59:42;8.82;;;5.80;;
26906;SDS011;14472;56.880;16.658;2022-10-16T05:02:08;6.20;;;5.70;;
26906;SDS011;14472;56.880;16.658;2022-10-16T05:04:34;6.75;;;6.20;;
26906;SDS011;14472;56.880;16.658;2022-10-16T05:06:59;5.85;;;5.35;;
26906;SDS011;14472;56.880;16.658;2022-10-16T05:09:25;7.03;;;5.50;;
26906;SDS011;14472;56.880;16.658;2022-10-16T05:11:51;6.18;;;5.57;;
26906;SDS011;14472;56.880;16.658;2022-10-16T05:14:16;5.70;;;5.20;;
26906;SDS011;14472;56.880;16.658;2022-10-16T05:16:42;5.70;;;5.20;;
26906;SDS011;14472;56.880;16.658;2022-10-16T05:19:08;7.20;;;5.78;;
26906;SDS011;14472;56.880;16.658;2022-10-16T05:21:33;6.40;;;5.78;;
26906;SDS011;14472;56.880;16.658;2022-10-16T05:23:59;6.13;;;5.40;;
26906;SDS011;14472;56.880;16.658;2022-10-16T05:26:25;6.60;;;6.00;;
26906;SDS011;14472;56.880;16.658;2022-10-16T05:28:50;6.63;;;5.53;;
26906;SDS011;14472;56.880;16.658;2022-10-16T05:31:16;6.15;;;5.55;;
26906;SDS011;14472;56.880;16.658;2022-10-16T05:33:42;6.18;;;5.57;;
26906;SDS011;14472;56.880;16.658;2022-10-16T05:36:09;5.70;;;5.18;;
26906;SDS011;14472;56.880;16.658;2022-10-16T05:38:35;6.20;;;5.13;;
26906;SDS011;14472;56.880;16.658;2022-10-16T05:41:02;5.90;;;5.40;;
26906;SDS011;14472;56.880;16.658;2022-10-16T05:43:29;6.28;;;5.68;;
26906;SDS011;14472;56.880;16.658;2022-10-16T05:45:56;5.82;;;5.30;;
26906;SDS011;14472;56.880;16.658;2022-10-16T05:48:24;6.00;;;5.40;;
26906;SDS011;14472;56.880;16.658;2022-10-16T05:51:00;6.68;;;6.03;;
26906;SDS011;14472;56.880;16.658;2022-10-16T05:53:28;6.13;;;5.45;;
26906;SDS011;14472;56.880;16.658;2022-10-16T05:55:55;6.55;;;5.88;;
26906;SDS011;14472;56.880;16.658;2022-10-16T05:58:22;6.13;;;5.55;;
26906;SDS011;14472;56.880;16.658;2022-10-16T06:03:44;5.93;;;5.13;;
26906;SDS011;14472;56.880;16.658;2022-10-16T06:06:16;6.22;;;5.63;;
26906;SDS011;14472;56.880;16.658;2022-10-16T06:08:44;6.50;;;5.78;;
26906;SDS011;14472;56.880;16.658;2022-10-16T06:11:12;6.20;;;5.30;;
26906;SDS011;14472;56.880;16.658;2022-10-16T06:13:40;6.20;;;5.60;;
26906;SDS011;14472;56.880;16.658;2022-10-16T06:16:11;6.00;;;5.40;;
26906;SDS011;14472;56.880;16.658;2022-10-16T06:18:37;5.60;;;5.15;;
26906;SDS011;14472;56.880;16.658;2022-10-16T06:21:07;5.68;;;5.10;;
26906;SDS011;14472;56.880;16.658;2022-10-16T06:23:44;5.72;;;5.22;;
26906;SDS011;14472;56.880;16.658;2022-10-16T06:26:15;5.32;;;4.93;;
26906;SDS011;14472;56.880;16.658;2022-10-16T06:28:43;5.05;;;4.55;;
26906;SDS011;14472;56.880;16.658;2022-10-16T06:31:09;5.07;;;4.57;;
26906;SDS011;14472;56.880;16.658;2022-10-16T06:33:36;6.13;;;4.60;;
26906;SDS011;14472;56.880;16.658;2022-10-16T06:36:03;4.80;;;4.40;;
26906;SDS011;14472;56.880;16.658;2022-10-16T06:38:34;4.47;;;4.07;;
26906;SDS011;14472;56.880;16.658;2022-10-16T06:41:00;5.15;;;4.45;;
26906;SDS011;14472;56.880;16.658;2022-10-16T06:43:27;4.35;;;3.95;;
26906;SDS011;14472;56.880;16.658;2022-10-16T06:45:57;4.18;;;3.88;;
26906;SDS011;14472;56.880;16.658;2022-10-16T06:48:23;4.35;;;3.80;;
26906;SDS011;14472;56.880;16.658;2022-10-16T06:53:26;3.92;;;3.50;;
26906;SDS011;14472;56.880;16.658;2022-10-16T06:55:53;3.72;;;3.30;;
26906;SDS011;14472;56.880;16.658;2022-10-16T06:58:19;3.55;;;3.25;;
26906;SDS011;14472;56.880;16.658;2022-10-16T07:00:45;3.40;;;3.10;;
26906;SDS011;14472;56.880;16.658;2022-10-16T07:03:11;3.80;;;3.50;;
26906;SDS011;14472;56.880;16.658;2022-10-16T07:05:42;3.80;;;3.38;;
26906;SDS011;14472;56.880;16.658;2022-10-16T07:08:09;3.60;;;3.30;;
26906;SDS011;14472;56.880;16.658;2022-10-16T07:10:35;3.40;;;3.10;;
26906;SDS011;14472;56.880;16.658;2022-10-16T07:13:01;3.40;;;3.08;;
26906;SDS011;14472;56.880;16.658;2022-10-16T07:15:27;3.90;;;2.95;;
26906;SDS011;14472;56.880;16.658;2022-10-16T07:17:53;3.13;;;2.83;;
26906;SDS011;14472;56.880;16.658;2022-10-16T07:20:19;3.72;;;3.00;;
26906;SDS011;14472;56.880;16.658;2022-10-16T07:22:45;3.05;;;2.70;;
26906;SDS011;14472;56.880;16.658;2022-10-16T07:25:11;2.97;;;2.67;;
26906;SDS011;14472;56.880;16.658;2022-10-16T07:27:36;2.97;;;2.70;;
26906;SDS011;14472;56.880;16.658;2022-10-16T07:30:02;3.10;;;2.90;;
26906;SDS011;14472;56.880;16.658;2022-10-16T07:32:29;2.97;;;2.75;;
26906;SDS011;14472;56.880;16.658;2022-10-16T07:34:56;3.55;;;2.72;;
26906;SDS011;14472;56.880;16.658;2022-10-16T07:37:21;3.10;;;2.80;;
26906;SDS011;14472;56.880;16.658;2022-10-16T07:39:47;3.30;;;3.00;;
26906;SDS011;14472;56.880;16.658;2022-10-16T07:42:13;3.20;;;2.90;;
26906;SDS011;14472;56.880;16.658;2022-10-16T07:44:38;3.53;;;3.22;;
26906;SDS011;14472;56.880;16.658;2022-10-16T07:47:05;3.83;;;3.33;;
26906;SDS011;14472;56.880;16.658;2022-10-16T07:49:31;3.20;;;2.90;;
26906;SDS011;14472;56.880;16.658;2022-10-16T07:51:57;3.63;;;3.13;;
26906;SDS011;14472;56.880;16.658;2022-10-16T07:54:23;3.17;;;2.97;;
26906;SDS011;14472;56.880;16.658;2022-10-16T07:56:48;3.38;;;3.08;;
26906;SDS011;14472;56.880;16.658;2022-10-16T07:59:14;3.60;;;3.30;;
26906;SDS011;14472;56.880;16.658;2022-10-16T08:01:40;3.25;;;2.92;;
26906;SDS011;14472;56.880;16.658;2022-10-16T08:04:07;3.97;;;2.80;;
26906;SDS011;14472;56.880;16.658;2022-10-16T08:06:38;3.72;;;2.50;;
26906;SDS011;14472;56.880;16.658;2022-10-16T08:09:05;3.35;;;2.60;;
26906;SDS011;14472;56.880;16.658;2022-10-16T08:11:32;3.20;;;2.90;;
26906;SDS011;14472;56.880;16.658;2022-10-16T08:13:58;3.40;;;3.10;;
26906;SDS011;14472;56.880;16.658;2022-10-16T08:16:23;3.55;;;3.25;;
26906;SDS011;14472;56.880;16.658;2022-10-16T08:18:49;7.43;;;6.72;;
26906;SDS011;14472;56.880;16.658;2022-10-16T08:21:17;4.18;;;3.47;;
26906;SDS011;14472;56.880;16.658;2022-10-16T08:23:45;3.42;;;3.13;;
26906;SDS011;14472;56.880;16.658;2022-10-16T08:26:11;4.07;;;3.78;;
26906;SDS011;14472;56.880;16.658;2022-10-16T08:28:38;4.18;;;3.80;;
26906;SDS011;14472;56.880;16.658;2022-10-16T08:31:13;4.47;;;3.65;;
26906;SDS011;14472;56.880;16.658;2022-10-16T08:33:40;3.33;;;3.03;;
26906;SDS011;14472;56.880;16.658;2022-10-16T08:36:09;3.88;;;3.40;;
26906;SDS011;14472;56.880;16.658;2022-10-16T08:38:36;3.92;;;3.30;;
26906;SDS011;14472;56.880;16.658;2022-10-16T08:47:16;3.28;;;2.97;;
26906;SDS011;14472;56.880;16.658;2022-10-16T08:52:25;4.25;;;3.03;;
26906;SDS011;14472;56.880;16.658;2022-10-16T08:54:55;3.08;;;2.80;;
26906;SDS011;14472;56.880;16.658;2022-10-16T08:57:22;3.08;;;2.72;;
26906;SDS011;14472;56.880;16.658;2022-10-16T08:59:51;3.83;;;2.95;;
26906;SDS011;14472;56.880;16.658;2022-10-16T09:02:24;3.92;;;3.33;;
26906;SDS011;14472;56.880;16.658;2022-10-16T09:05:23;3.63;;;2.78;;
26906;SDS011;14472;56.880;16.658;2022-10-16T09:11:07;3.28;;;2.97;;
26906;SDS011;14472;56.880;16.658;2022-10-16T09:13:52;2.92;;;2.67;;
26906;SDS011;14472;56.880;16.658;2022-10-16T09:16:56;2.95;;;2.67;;
26906;SDS011;14472;56.880;16.658;2022-10-16T09:19:30;2.88;;;2.60;;
26906;SDS011;14472;56.880;16.658;2022-10-16T09:22:04;2.75;;;2.53;;
26906;SDS011;14472;56.880;16.658;2022-10-16T09:24:39;3.17;;;2.88;;
26906;SDS011;14472;56.880;16.658;2022-10-16T09:27:07;3.00;;;2.80;;
26906;SDS011;14472;56.880;16.658;2022-10-16T09:29:42;3.78;;;2.70;;
26906;SDS011;14472;56.880;16.658;2022-10-16T09:32:12;3.00;;;2.80;;
26906;SDS011;14472;56.880;16.658;2022-10-16T09:34:47;3.22;;;2.58;;
26906;SDS011;14472;56.880;16.658;2022-10-16T09:37:17;2.75;;;2.53;;
26906;SDS011;14472;56.880;16.658;2022-10-16T09:39:52;2.95;;;2.67;;
26906;SDS011;14472;56.880;16.658;2022-10-16T09:42:23;2.97;;;2.50;;
26906;SDS011;14472;56.880;16.658;2022-10-16T09:45:20;2.17;;;1.98;;
26906;SDS011;14472;56.880;16.658;2022-10-16T09:47:48;2.08;;;1.98;;
26906;SDS011;14472;56.880;16.658;2022-10-16T09:50:25;2.65;;;1.90;;
26906;SDS011;14472;56.880;16.658;2022-10-16T09:53:06;1.90;;;1.52;;
26906;SDS011;14472;56.880;16.658;2022-10-16T09:55:47;1.67;;;1.58;;
26906;SDS011;14472;56.880;16.658;2022-10-16T09:58:17;1.88;;;1.60;;
26906;SDS011;14472;56.880;16.658;2022-10-16T10:00:48;1.90;;;1.63;;
26906;SDS011;14472;56.880;16.658;2022-10-16T10:03:26;1.50;;;1.40;;
26906;SDS011;14472;56.880;16.658;2022-10-16T10:06:05;1.42;;;1.30;;
26906;SDS011;14472;56.880;16.658;2022-10-16T10:08:41;1.55;;;1.40;;
26906;SDS011;14472;56.880;16.658;2022-10-16T10:11:42;1.85;;;1.42;;
26906;SDS011;14472;56.880;16.658;2022-10-16T10:14:20;2.83;;;1.30;;
26906;SDS011;14472;56.880;16.658;2022-10-16T10:16:52;1.70;;;1.30;;
26906;SDS011;14472;56.880;16.658;2022-10-16T10:19:27;1.30;;;1.20;;
26906;SDS011;14472;56.880;16.658;2022-10-16T10:22:13;1.40;;;1.30;;
26906;SDS011;14472;56.880;16.658;2022-10-16T10:24:57;2.25;;;1.27;;
26906;SDS011;14472;56.880;16.658;2022-10-16T10:52:10;1.63;;;1.08;;
26906;SDS011;14472;56.880;16.658;2022-10-16T10:54:50;1.00;;;0.98;;
26906;SDS011;14472;56.880;16.658;2022-10-16T10:57:46;2.45;;;1.20;;
26906;SDS011;14472;56.880;16.658;2022-10-16T11:08:34;2.15;;;1.10;;
26906;SDS011;14472;56.880;16.658;2022-10-16T11:11:07;3.10;;;1.40;;
26906;SDS011;14472;56.880;16.658;2022-10-16T11:17:02;1.83;;;1.30;;
26906;SDS011;14472;56.880;16.658;2022-10-16T11:19:44;1.67;;;1.10;;
26906;SDS011;14472;56.880;16.658;2022-10-16T11:22:46;2.35;;;1.10;;
26906;SDS011;14472;56.880;16.658;2022-10-16T11:25:30;2.42;;;1.63;;
26906;SDS011;14472;56.880;16.658;2022-10-16T11:30:26;1.77;;;1.08;;
26906;SDS011;14472;56.880;16.658;2022-10-16T11:41:03;5.05;;;1.60;;
26906;SDS011;14472;56.880;16.658;2022-10-16T11:46:38;2.55;;;1.27;;
26906;SDS011;14472;56.880;16.658;2022-10-16T11:49:24;2.00;;;1.10;;
26906;SDS011;14472;56.880;16.658;2022-10-16T11:52:00;2.45;;;1.30;;
26906;SDS011;14472;56.880;16.658;2022-10-16T12:05:20;2.58;;;1.30;;
26906;SDS011;14472;56.880;16.658;2022-10-16T12:07:56;1.77;;;1.00;;
26906;SDS011;14472;56.880;16.658;2022-10-16T12:10:29;4.82;;;1.45;;
26906;SDS011;14472;56.880;16.658;2022-10-16T12:13:02;2.33;;;1.00;;
26906;SDS011;14472;56.880;16.658;2022-10-16T12:15:30;3.30;;;1.38;;
26906;SDS011;14472;56.880;16.658;2022-10-16T12:17:58;2.45;;;1.30;;
26906;SDS011;14472;56.880;16.658;2022-10-16T12:20:28;1.85;;;1.25;;
26906;SDS011;14472;56.880;16.658;2022-10-16T12:23:02;3.03;;;1.10;;
26906;SDS011;14472;56.880;16.658;2022-10-16T12:25:31;2.88;;;1.10;;
26906;SDS011;14472;56.880;16.658;2022-10-16T12:30:29;2.65;;;1.10;;
26906;SDS011;14472;56.880;16.658;2022-10-16T12:32:58;1.80;;;1.02;;
26906;SDS011;14472;56.880;16.658;2022-10-16T12:35:35;3.55;;;1.27;;
26906;SDS011;14472;56.880;16.658;2022-10-16T12:38:17;1.60;;;1.17;;
26906;SDS011;14472;56.880;16.658;2022-10-16T12:40:44;2.42;;;1.13;;
26906;SDS011;14472;56.880;16.658;2022-10-16T12:43:13;2.58;;;1.35;;
26906;SDS011;14472;56.880;16.658;2022-10-16T12:46:01;1.08;;;0.95;;
26906;SDS011;14472;56.880;16.658;2022-10-16T12:48:29;1.90;;;1.08;;
26906;SDS011;14472;56.880;16.658;2022-10-16T12:50:55;2.67;;;1.20;;
26906;SDS011;14472;56.880;16.658;2022-10-16T12:53:23;1.40;;;1.15;;
26906;SDS011;14472;56.880;16.658;2022-10-16T12:56:05;1.65;;;1.10;;
26906;SDS011;14472;56.880;16.658;2022-10-16T13:01:56;1.90;;;1.10;;
26906;SDS011;14472;56.880;16.658;2022-10-16T13:04:04;2.42;;;1.10;;
26906;SDS011;14472;56.880;16.658;2022-10-16T13:17:05;2.03;;;1.02;;
26906;SDS011;14472;56.880;16.658;2022-10-16T13:19:42;1.52;;;1.00;;
26906;SDS011;14472;56.880;16.658;2022-10-16T13:25:08;1.90;;;1.10;;
26906;SDS011;14472;56.880;16.658;2022-10-16T13:27:55;2.08;;;1.10;;
26906;SDS011;14472;56.880;16.658;2022-10-16T13:30:29;3.05;;;1.10;;
26906;SDS011;14472;56.880;16.658;2022-10-16T13:33:02;2.10;;;1.20;;
26906;SDS011;14472;56.880;16.658;2022-10-16T13:35:32;1.55;;;0.90;;
26906;SDS011;14472;56.880;16.658;2022-10-16T13:41:40;2.75;;;1.10;;
26906;SDS011;14472;56.880;16.658;2022-10-16T13:43:45;2.35;;;1.13;;
26906;SDS011;14472;56.880;16.658;2022-10-16T13:46:15;1.50;;;1.02;;
26906;SDS011;14472;56.880;16.658;2022-10-16T13:48:43;2.10;;;1.10;;
26906;SDS011;14472;56.880;16.658;2022-10-16T13:51:20;3.13;;;1.00;;
26906;SDS011;14472;56.880;16.658;2022-10-16T13:53:46;1.90;;;1.00;;
26906;SDS011;14472;56.880;16.658;2022-10-16T13:56:13;1.35;;;0.90;;
26906;SDS011;14472;56.880;16.658;2022-10-16T13:58:41;2.35;;;1.23;;
26906;SDS011;14472;56.880;16.658;2022-10-16T14:03:44;1.75;;;1.00;;
26906;SDS011;14472;56.880;16.658;2022-10-16T14:06:12;1.92;;;1.00;;
26906;SDS011;14472;56.880;16.658;2022-10-16T14:11:27;1.77;;;1.00;;
26906;SDS011;14472;56.880;16.658;2022-10-16T14:13:53;2.10;;;1.30;;
26906;SDS011;14472;56.880;16.658;2022-10-16T14:16:23;2.78;;;1.15;;
26906;SDS011;14472;56.880;16.658;2022-10-16T14:19:02;2.75;;;1.15;;
26906;SDS011;14472;56.880;16.658;2022-10-16T14:21:31;1.70;;;1.02;;
26906;SDS011;14472;56.880;16.658;2022-10-16T14:23:59;2.03;;;0.90;;
26906;SDS011;14472;56.880;16.658;2022-10-16T14:26:40;1.25;;;0.93;;
26906;SDS011;14472;56.880;16.658;2022-10-16T14:29:11;1.40;;;1.00;;
26906;SDS011;14472;56.880;16.658;2022-10-16T14:31:42;2.65;;;0.90;;
26906;SDS011;14472;56.880;16.658;2022-10-16T14:34:27;6.05;;;1.00;;
26906;SDS011;14472;56.880;16.658;2022-10-16T14:36:55;2.05;;;0.98;;
26906;SDS011;14472;56.880;16.658;2022-10-16T14:39:22;3.03;;;1.20;;
26906;SDS011;14472;56.880;16.658;2022-10-16T14:41:49;2.55;;;0.85;;
26906;SDS011;14472;56.880;16.658;2022-10-16T14:44:21;1.60;;;0.95;;
26906;SDS011;14472;56.880;16.658;2022-10-16T14:46:53;2.45;;;1.02;;
26906;SDS011;14472;56.880;16.658;2022-10-16T14:49:21;1.33;;;0.80;;
26906;SDS011;14472;56.880;16.658;2022-10-16T14:51:49;1.00;;;0.90;;
26906;SDS011;14472;56.880;16.658;2022-10-16T14:54:15;1.70;;;1.10;;
26906;SDS011;14472;56.880;16.658;2022-10-16T14:59:35;2.33;;;1.30;;
26906;SDS011;14472;56.880;16.658;2022-10-16T15:02:18;1.35;;;0.80;;
26906;SDS011;14472;56.880;16.658;2022-10-16T15:04:46;2.35;;;1.00;;
26906;SDS011;14472;56.880;16.658;2022-10-16T15:07:12;1.63;;;0.90;;
26906;SDS011;14472;56.880;16.658;2022-10-16T15:09:37;2.22;;;0.90;;
26906;SDS011;14472;56.880;16.658;2022-10-16T15:12:03;1.13;;;0.85;;
26906;SDS011;14472;56.880;16.658;2022-10-16T15:14:29;3.35;;;1.27;;
26906;SDS011;14472;56.880;16.658;2022-10-16T15:16:55;2.13;;;1.10;;
26906;SDS011;14472;56.880;16.658;2022-10-16T15:19:20;1.77;;;1.00;;
26906;SDS011;14472;56.880;16.658;2022-10-16T15:21:46;2.05;;;1.02;;
26906;SDS011;14472;56.880;16.658;2022-10-16T15:24:13;2.67;;;0.93;;
26906;SDS011;14472;56.880;16.658;2022-10-16T15:26:39;2.67;;;1.10;;
26906;SDS011;14472;56.880;16.658;2022-10-16T15:29:06;3.30;;;1.10;;
26906;SDS011;14472;56.880;16.658;2022-10-16T15:31:32;1.77;;;0.80;;
26906;SDS011;14472;56.880;16.658;2022-10-16T15:33:58;3.15;;;1.08;;
26906;SDS011;14472;56.880;16.658;2022-10-16T15:36:29;2.00;;;0.90;;
26906;SDS011;14472;56.880;16.658;2022-10-16T15:38:58;2.95;;;1.20;;
26906;SDS011;14472;56.880;16.658;2022-10-16T15:41:24;4.90;;;1.40;;
26906;SDS011;14472;56.880;16.658;2022-10-16T15:43:50;4.35;;;1.35;;
26906;SDS011;14472;56.880;16.658;2022-10-16T15:46:18;5.88;;;1.70;;
26906;SDS011;14472;56.880;16.658;2022-10-16T15:48:45;8.95;;;2.40;;
26906;SDS011;14472;56.880;16.658;2022-10-16T15:51:12;4.07;;;1.90;;
26906;SDS011;14472;56.880;16.658;2022-10-16T15:53:37;2.10;;;0.95;;
26906;SDS011;14472;56.880;16.658;2022-10-16T15:56:03;1.90;;;0.80;;
26906;SDS011;14472;56.880;16.658;2022-10-16T15:58:30;5.55;;;0.90;;
26906;SDS011;14472;56.880;16.658;2022-10-16T16:00:57;1.85;;;0.85;;
26906;SDS011;14472;56.880;16.658;2022-10-16T16:03:26;1.70;;;0.88;;
26906;SDS011;14472;56.880;16.658;2022-10-16T16:05:52;0.82;;;0.70;;
26906;SDS011;14472;56.880;16.658;2022-10-16T16:08:18;1.67;;;0.80;;
26906;SDS011;14472;56.880;16.658;2022-10-16T16:10:43;1.42;;;0.88;;
26906;SDS011;14472;56.880;16.658;2022-10-16T16:13:09;0.98;;;0.60;;
26906;SDS011;14472;56.880;16.658;2022-10-16T16:15:38;1.45;;;0.90;;
26906;SDS011;14472;56.880;16.658;2022-10-16T16:18:05;1.23;;;0.80;;
26906;SDS011;14472;56.880;16.658;2022-10-16T16:20:31;0.70;;;0.60;;
26906;SDS011;14472;56.880;16.658;2022-10-16T16:22:57;1.33;;;0.63;;
26906;SDS011;14472;56.880;16.658;2022-10-16T16:25:23;1.25;;;0.90;;
26906;SDS011;14472;56.880;16.658;2022-10-16T16:27:48;0.97;;;0.80;;
26906;SDS011;14472;56.880;16.658;2022-10-16T16:30:14;1.40;;;0.90;;
26906;SDS011;14472;56.880;16.658;2022-10-16T16:32:40;3.10;;;0.70;;
26906;SDS011;14472;56.880;16.658;2022-10-16T16:35:06;1.60;;;0.80;;
26906;SDS011;14472;56.880;16.658;2022-10-16T16:37:31;1.70;;;0.60;;
26906;SDS011;14472;56.880;16.658;2022-10-16T16:39:57;2.17;;;1.00;;
26906;SDS011;14472;56.880;16.658;2022-10-16T16:42:24;1.07;;;0.70;;
26906;SDS011;14472;56.880;16.658;2022-10-16T16:44:50;0.93;;;0.67;;